Nulato, Alaska
Current Conditions -  °F | °C
As of 2:53 AM on Thursday 27 Nov 2014 (Local Time) from PAKV Reporting Station
Scattered Clouds Scattered Clouds  
Wind Chill: -4°   Ceiling: Unl
Heat Index: 10°   Visibility: 10mi
Dew Point:   Wind: 10mph
Humidity: 70%   Direction: 50°NE
Pressure: 30.4"   Gusts: NA
Location:  64.72°N, 158.13°W
Report Text: PAKV 271153Z AUTO 05009KT 10SM SCT075 M12/M17 A3040 RMK AO1 SLP298 T11221167 11106 21122 58015 FZRANO TSNO
Loading
Personal Weather Stations






























Interactive Weather Map New forecast layout! Learn more

10-Day Weather Forecast

Advertisements
Track Severe Weather on mobile